sensor_id;sensor_type;location;lat;lon;timestamp;P1;durP1;ratioP1;P2;durP2;ratioP2
1320;SDS011;653;51.480;11.992;2023-04-15T00:00:59;8.63;;;7.23;;
1320;SDS011;653;51.480;11.992;2023-04-15T00:03:26;10.20;;;7.70;;
1320;SDS011;653;51.480;11.992;2023-04-15T00:05:53;10.70;;;8.10;;
1320;SDS011;653;51.480;11.992;2023-04-15T00:08:20;10.70;;;8.73;;
1320;SDS011;653;51.480;11.992;2023-04-15T00:10:47;11.60;;;8.40;;
1320;SDS011;653;51.480;11.992;2023-04-15T00:13:14;10.23;;;9.17;;
1320;SDS011;653;51.480;11.992;2023-04-15T00:15:41;9.23;;;7.77;;
1320;SDS011;653;51.480;11.992;2023-04-15T00:18:08;9.20;;;8.13;;
1320;SDS011;653;51.480;11.992;2023-04-15T00:20:34;11.97;;;9.17;;
1320;SDS011;653;51.480;11.992;2023-04-15T00:23:00;13.13;;;8.87;;
1320;SDS011;653;51.480;11.992;2023-04-15T00:25:26;12.30;;;10.50;;
1320;SDS011;653;51.480;11.992;2023-04-15T00:27:53;11.77;;;9.07;;
1320;SDS011;653;51.480;11.992;2023-04-15T00:30:20;13.07;;;10.47;;
1320;SDS011;653;51.480;11.992;2023-04-15T00:32:47;11.17;;;9.50;;
1320;SDS011;653;51.480;11.992;2023-04-15T00:35:13;11.20;;;9.33;;
1320;SDS011;653;51.480;11.992;2023-04-15T00:37:39;13.60;;;10.60;;
1320;SDS011;653;51.480;11.992;2023-04-15T00:40:06;14.07;;;10.73;;
1320;SDS011;653;51.480;11.992;2023-04-15T00:42:36;13.73;;;10.80;;
1320;SDS011;653;51.480;11.992;2023-04-15T00:45:03;12.20;;;9.47;;
1320;SDS011;653;51.480;11.992;2023-04-15T00:47:29;14.57;;;10.20;;
1320;SDS011;653;51.480;11.992;2023-04-15T00:49:55;11.73;;;9.40;;
1320;SDS011;653;51.480;11.992;2023-04-15T00:52:22;10.70;;;8.40;;
1320;SDS011;653;51.480;11.992;2023-04-15T00:54:48;11.40;;;9.00;;
1320;SDS011;653;51.480;11.992;2023-04-15T00:57:17;14.30;;;10.70;;
1320;SDS011;653;51.480;11.992;2023-04-15T00:59:47;17.90;;;12.30;;
1320;SDS011;653;51.480;11.992;2023-04-15T01:02:14;20.23;;;13.20;;
1320;SDS011;653;51.480;11.992;2023-04-15T01:04:41;19.80;;;13.47;;
1320;SDS011;653;51.480;11.992;2023-04-15T01:07:07;22.10;;;14.40;;
1320;SDS011;653;51.480;11.992;2023-04-15T01:09:34;23.07;;;16.07;;
1320;SDS011;653;51.480;11.992;2023-04-15T01:12:01;23.97;;;15.80;;
1320;SDS011;653;51.480;11.992;2023-04-15T01:14:28;25.10;;;17.13;;
1320;SDS011;653;51.480;11.992;2023-04-15T01:16:55;25.17;;;17.27;;
1320;SDS011;653;51.480;11.992;2023-04-15T01:19:22;25.07;;;16.97;;
1320;SDS011;653;51.480;11.992;2023-04-15T01:21:49;22.87;;;17.30;;
1320;SDS011;653;51.480;11.992;2023-04-15T01:24:15;21.77;;;16.63;;
1320;SDS011;653;51.480;11.992;2023-04-15T01:26:43;25.70;;;17.60;;
1320;SDS011;653;51.480;11.992;2023-04-15T01:29:10;22.73;;;16.97;;
1320;SDS011;653;51.480;11.992;2023-04-15T01:31:37;23.00;;;16.80;;
1320;SDS011;653;51.480;11.992;2023-04-15T01:34:04;20.87;;;15.07;;
1320;SDS011;653;51.480;11.992;2023-04-15T01:36:31;19.53;;;14.80;;
1320;SDS011;653;51.480;11.992;2023-04-15T01:38:59;22.67;;;16.10;;
1320;SDS011;653;51.480;11.992;2023-04-15T01:41:26;22.83;;;16.70;;
1320;SDS011;653;51.480;11.992;2023-04-15T01:43:53;20.17;;;15.70;;
1320;SDS011;653;51.480;11.992;2023-04-15T01:46:21;24.93;;;16.73;;
1320;SDS011;653;51.480;11.992;2023-04-15T01:48:48;22.70;;;16.20;;
1320;SDS011;653;51.480;11.992;2023-04-15T01:51:16;25.50;;;16.67;;
1320;SDS011;653;51.480;11.992;2023-04-15T01:53:42;23.03;;;14.87;;
1320;SDS011;653;51.480;11.992;2023-04-15T01:56:08;17.33;;;13.23;;
1320;SDS011;653;51.480;11.992;2023-04-15T01:58:33;32.00;;;25.23;;
1320;SDS011;653;51.480;11.992;2023-04-15T02:01:00;17.30;;;13.07;;
1320;SDS011;653;51.480;11.992;2023-04-15T02:03:28;17.80;;;12.90;;
1320;SDS011;653;51.480;11.992;2023-04-15T02:05:57;17.20;;;12.27;;
1320;SDS011;653;51.480;11.992;2023-04-15T02:08:24;17.97;;;13.00;;
1320;SDS011;653;51.480;11.992;2023-04-15T02:10:52;18.07;;;12.27;;
1320;SDS011;653;51.480;11.992;2023-04-15T02:13:17;17.17;;;12.67;;
1320;SDS011;653;51.480;11.992;2023-04-15T02:15:50;16.53;;;11.57;;
1320;SDS011;653;51.480;11.992;2023-04-15T02:18:18;16.10;;;11.23;;
1320;SDS011;653;51.480;11.992;2023-04-15T02:20:44;16.87;;;13.43;;
1320;SDS011;653;51.480;11.992;2023-04-15T02:23:12;16.07;;;11.90;;
1320;SDS011;653;51.480;11.992;2023-04-15T02:25:39;19.27;;;13.53;;
1320;SDS011;653;51.480;11.992;2023-04-15T02:28:05;19.33;;;12.03;;
1320;SDS011;653;51.480;11.992;2023-04-15T02:30:32;16.57;;;12.10;;
1320;SDS011;653;51.480;11.992;2023-04-15T02:32:59;17.43;;;12.97;;
1320;SDS011;653;51.480;11.992;2023-04-15T02:35:26;18.70;;;12.90;;
1320;SDS011;653;51.480;11.992;2023-04-15T02:37:53;17.90;;;12.80;;
1320;SDS011;653;51.480;11.992;2023-04-15T02:40:18;15.47;;;11.37;;
1320;SDS011;653;51.480;11.992;2023-04-15T02:42:45;14.10;;;10.93;;
1320;SDS011;653;51.480;11.992;2023-04-15T02:45:12;15.47;;;11.10;;
1320;SDS011;653;51.480;11.992;2023-04-15T02:47:39;14.83;;;9.93;;
1320;SDS011;653;51.480;11.992;2023-04-15T02:50:10;13.77;;;10.57;;
1320;SDS011;653;51.480;11.992;2023-04-15T02:52:41;14.60;;;10.70;;
1320;SDS011;653;51.480;11.992;2023-04-15T02:55:08;15.63;;;10.67;;
1320;SDS011;653;51.480;11.992;2023-04-15T02:57:34;13.40;;;8.60;;
1320;SDS011;653;51.480;11.992;2023-04-15T03:00:06;14.77;;;9.80;;
1320;SDS011;653;51.480;11.992;2023-04-15T03:02:35;12.30;;;8.93;;
1320;SDS011;653;51.480;11.992;2023-04-15T03:05:03;11.77;;;8.90;;
1320;SDS011;653;51.480;11.992;2023-04-15T03:07:31;12.07;;;8.77;;
1320;SDS011;653;51.480;11.992;2023-04-15T03:09:58;11.73;;;8.63;;
1320;SDS011;653;51.480;11.992;2023-04-15T03:12:25;13.13;;;9.50;;
1320;SDS011;653;51.480;11.992;2023-04-15T03:14:52;13.97;;;8.80;;
1320;SDS011;653;51.480;11.992;2023-04-15T03:17:17;13.67;;;8.90;;
1320;SDS011;653;51.480;11.992;2023-04-15T03:19:44;12.50;;;9.00;;
1320;SDS011;653;51.480;11.992;2023-04-15T03:22:11;14.17;;;9.70;;
1320;SDS011;653;51.480;11.992;2023-04-15T03:24:37;11.47;;;8.80;;
1320;SDS011;653;51.480;11.992;2023-04-15T03:27:04;12.93;;;9.20;;
1320;SDS011;653;51.480;11.992;2023-04-15T03:29:35;13.60;;;9.37;;
1320;SDS011;653;51.480;11.992;2023-04-15T03:32:01;16.40;;;10.17;;
1320;SDS011;653;51.480;11.992;2023-04-15T03:34:26;13.00;;;9.20;;
1320;SDS011;653;51.480;11.992;2023-04-15T03:36:51;14.37;;;9.97;;
1320;SDS011;653;51.480;11.992;2023-04-15T03:39:19;14.70;;;9.83;;
1320;SDS011;653;51.480;11.992;2023-04-15T03:41:45;12.67;;;9.80;;
1320;SDS011;653;51.480;11.992;2023-04-15T03:44:12;14.53;;;9.50;;
1320;SDS011;653;51.480;11.992;2023-04-15T03:46:39;16.47;;;9.27;;
1320;SDS011;653;51.480;11.992;2023-04-15T03:49:05;13.90;;;10.13;;
1320;SDS011;653;51.480;11.992;2023-04-15T03:51:33;13.80;;;9.60;;
1320;SDS011;653;51.480;11.992;2023-04-15T03:54:00;14.43;;;10.40;;
1320;SDS011;653;51.480;11.992;2023-04-15T03:56:27;14.93;;;9.97;;
1320;SDS011;653;51.480;11.992;2023-04-15T03:58:53;14.80;;;9.50;;
1320;SDS011;653;51.480;11.992;2023-04-15T04:01:20;14.43;;;11.60;;
1320;SDS011;653;51.480;11.992;2023-04-15T04:03:47;14.10;;;9.50;;
1320;SDS011;653;51.480;11.992;2023-04-15T04:06:13;17.50;;;10.60;;
1320;SDS011;653;51.480;11.992;2023-04-15T04:08:40;11.60;;;9.23;;
1320;SDS011;653;51.480;11.992;2023-04-15T04:11:06;12.80;;;8.50;;
1320;SDS011;653;51.480;11.992;2023-04-15T04:13:33;17.73;;;10.50;;
1320;SDS011;653;51.480;11.992;2023-04-15T04:16:00;14.37;;;9.90;;
1320;SDS011;653;51.480;11.992;2023-04-15T04:18:27;16.17;;;10.17;;
1320;SDS011;653;51.480;11.992;2023-04-15T04:20:53;16.43;;;10.87;;
1320;SDS011;653;51.480;11.992;2023-04-15T04:23:21;16.13;;;10.63;;
1320;SDS011;653;51.480;11.992;2023-04-15T04:25:48;15.53;;;10.40;;
1320;SDS011;653;51.480;11.992;2023-04-15T04:28:15;16.87;;;12.27;;
1320;SDS011;653;51.480;11.992;2023-04-15T04:30:41;17.00;;;11.40;;
1320;SDS011;653;51.480;11.992;2023-04-15T04:33:08;16.10;;;10.77;;
1320;SDS011;653;51.480;11.992;2023-04-15T04:35:33;16.80;;;10.60;;
1320;SDS011;653;51.480;11.992;2023-04-15T04:38:03;16.97;;;10.80;;
1320;SDS011;653;51.480;11.992;2023-04-15T04:40:29;14.73;;;10.83;;
1320;SDS011;653;51.480;11.992;2023-04-15T04:42:56;16.00;;;10.90;;
1320;SDS011;653;51.480;11.992;2023-04-15T04:45:22;16.10;;;11.00;;
1320;SDS011;653;51.480;11.992;2023-04-15T04:47:49;17.43;;;11.30;;
1320;SDS011;653;51.480;11.992;2023-04-15T04:50:16;19.90;;;12.50;;
1320;SDS011;653;51.480;11.992;2023-04-15T04:52:42;15.17;;;11.27;;
1320;SDS011;653;51.480;11.992;2023-04-15T04:55:09;14.60;;;10.77;;
1320;SDS011;653;51.480;11.992;2023-04-15T04:57:35;17.03;;;12.93;;
1320;SDS011;653;51.480;11.992;2023-04-15T05:00:03;14.40;;;10.47;;
1320;SDS011;653;51.480;11.992;2023-04-15T05:02:29;16.80;;;11.13;;
1320;SDS011;653;51.480;11.992;2023-04-15T05:04:54;17.33;;;11.37;;
1320;SDS011;653;51.480;11.992;2023-04-15T05:07:22;15.67;;;11.30;;
1320;SDS011;653;51.480;11.992;2023-04-15T05:09:49;15.87;;;10.43;;
1320;SDS011;653;51.480;11.992;2023-04-15T05:12:15;14.57;;;11.60;;
1320;SDS011;653;51.480;11.992;2023-04-15T05:14:43;14.57;;;10.00;;
1320;SDS011;653;51.480;11.992;2023-04-15T05:17:08;16.87;;;10.23;;
1320;SDS011;653;51.480;11.992;2023-04-15T05:19:35;16.37;;;11.33;;
1320;SDS011;653;51.480;11.992;2023-04-15T05:22:02;18.03;;;11.30;;
1320;SDS011;653;51.480;11.992;2023-04-15T05:24:31;16.20;;;10.43;;
1320;SDS011;653;51.480;11.992;2023-04-15T05:26:57;15.37;;;10.70;;
1320;SDS011;653;51.480;11.992;2023-04-15T05:29:23;18.40;;;12.03;;
1320;SDS011;653;51.480;11.992;2023-04-15T05:31:49;15.27;;;11.20;;
1320;SDS011;653;51.480;11.992;2023-04-15T05:34:16;15.80;;;11.53;;
1320;SDS011;653;51.480;11.992;2023-04-15T05:36:43;16.53;;;11.97;;
1320;SDS011;653;51.480;11.992;2023-04-15T05:39:09;14.60;;;11.23;;
1320;SDS011;653;51.480;11.992;2023-04-15T05:41:35;17.17;;;12.20;;
1320;SDS011;653;51.480;11.992;2023-04-15T05:44:01;16.13;;;11.27;;
1320;SDS011;653;51.480;11.992;2023-04-15T05:46:31;16.10;;;11.37;;
1320;SDS011;653;51.480;11.992;2023-04-15T05:48:58;17.80;;;12.47;;
1320;SDS011;653;51.480;11.992;2023-04-15T05:51:23;17.00;;;12.10;;
1320;SDS011;653;51.480;11.992;2023-04-15T05:53:52;19.80;;;13.57;;
1320;SDS011;653;51.480;11.992;2023-04-15T05:56:19;15.13;;;11.00;;
1320;SDS011;653;51.480;11.992;2023-04-15T05:58:46;13.10;;;9.70;;
1320;SDS011;653;51.480;11.992;2023-04-15T06:01:12;13.30;;;9.57;;
1320;SDS011;653;51.480;11.992;2023-04-15T06:03:38;13.60;;;10.30;;
1320;SDS011;653;51.480;11.992;2023-04-15T06:06:03;15.20;;;10.17;;
1320;SDS011;653;51.480;11.992;2023-04-15T06:08:29;13.00;;;9.70;;
1320;SDS011;653;51.480;11.992;2023-04-15T06:10:57;16.70;;;11.00;;
1320;SDS011;653;51.480;11.992;2023-04-15T06:13:24;15.13;;;9.53;;
1320;SDS011;653;51.480;11.992;2023-04-15T06:15:51;13.17;;;10.10;;
1320;SDS011;653;51.480;11.992;2023-04-15T06:18:18;13.70;;;9.97;;
1320;SDS011;653;51.480;11.992;2023-04-15T06:20:44;11.53;;;8.40;;
1320;SDS011;653;51.480;11.992;2023-04-15T06:23:11;15.67;;;10.50;;
1320;SDS011;653;51.480;11.992;2023-04-15T06:25:38;17.70;;;9.20;;
1320;SDS011;653;51.480;11.992;2023-04-15T06:28:05;13.87;;;10.10;;
1320;SDS011;653;51.480;11.992;2023-04-15T06:30:32;15.93;;;10.43;;
1320;SDS011;653;51.480;11.992;2023-04-15T06:32:57;12.70;;;9.57;;
1320;SDS011;653;51.480;11.992;2023-04-15T06:35:24;15.40;;;10.80;;
1320;SDS011;653;51.480;11.992;2023-04-15T06:37:51;16.77;;;12.93;;
1320;SDS011;653;51.480;11.992;2023-04-15T06:40:18;20.50;;;13.00;;
1320;SDS011;653;51.480;11.992;2023-04-15T06:42:45;17.40;;;11.90;;
1320;SDS011;653;51.480;11.992;2023-04-15T06:45:12;17.50;;;10.93;;
1320;SDS011;653;51.480;11.992;2023-04-15T06:47:39;17.13;;;11.93;;
1320;SDS011;653;51.480;11.992;2023-04-15T06:50:07;18.23;;;11.93;;
1320;SDS011;653;51.480;11.992;2023-04-15T06:52:34;15.37;;;11.60;;
1320;SDS011;653;51.480;11.992;2023-04-15T06:55:00;17.63;;;10.70;;
1320;SDS011;653;51.480;11.992;2023-04-15T06:57:27;18.50;;;11.33;;
1320;SDS011;653;51.480;11.992;2023-04-15T06:59:54;16.23;;;10.47;;
1320;SDS011;653;51.480;11.992;2023-04-15T07:02:21;16.03;;;10.77;;
1320;SDS011;653;51.480;11.992;2023-04-15T07:04:47;17.60;;;11.93;;
1320;SDS011;653;51.480;11.992;2023-04-15T07:07:14;15.27;;;11.67;;
1320;SDS011;653;51.480;11.992;2023-04-15T07:09:41;18.10;;;11.90;;
1320;SDS011;653;51.480;11.992;2023-04-15T07:12:07;20.43;;;12.90;;
1320;SDS011;653;51.480;11.992;2023-04-15T07:14:34;17.73;;;11.27;;
1320;SDS011;653;51.480;11.992;2023-04-15T07:17:02;16.67;;;11.43;;
1320;SDS011;653;51.480;11.992;2023-04-15T07:19:30;15.10;;;10.90;;
1320;SDS011;653;51.480;11.992;2023-04-15T07:21:57;16.30;;;10.73;;
1320;SDS011;653;51.480;11.992;2023-04-15T07:24:24;20.80;;;12.03;;
1320;SDS011;653;51.480;11.992;2023-04-15T07:26:52;20.50;;;13.00;;
1320;SDS011;653;51.480;11.992;2023-04-15T07:29:23;17.63;;;12.97;;
1320;SDS011;653;51.480;11.992;2023-04-15T07:31:50;15.90;;;12.70;;
1320;SDS011;653;51.480;11.992;2023-04-15T07:34:16;18.93;;;13.10;;
1320;SDS011;653;51.480;11.992;2023-04-15T07:36:44;18.70;;;12.80;;
1320;SDS011;653;51.480;11.992;2023-04-15T07:39:11;21.10;;;14.67;;
1320;SDS011;653;51.480;11.992;2023-04-15T07:41:37;20.30;;;12.53;;
1320;SDS011;653;51.480;11.992;2023-04-15T07:44:03;21.73;;;13.77;;
1320;SDS011;653;51.480;11.992;2023-04-15T07:46:30;22.30;;;14.30;;
1320;SDS011;653;51.480;11.992;2023-04-15T07:48:57;23.17;;;16.30;;
1320;SDS011;653;51.480;11.992;2023-04-15T07:51:23;23.80;;;16.13;;
1320;SDS011;653;51.480;11.992;2023-04-15T07:53:50;20.80;;;14.03;;
1320;SDS011;653;51.480;11.992;2023-04-15T07:56:16;19.60;;;14.67;;
1320;SDS011;653;51.480;11.992;2023-04-15T07:58:41;19.83;;;14.17;;
1320;SDS011;653;51.480;11.992;2023-04-15T08:01:09;19.10;;;13.83;;
1320;SDS011;653;51.480;11.992;2023-04-15T08:03:34;20.77;;;14.73;;
1320;SDS011;653;51.480;11.992;2023-04-15T08:06:00;22.87;;;14.50;;
1320;SDS011;653;51.480;11.992;2023-04-15T08:08:27;20.77;;;15.40;;
1320;SDS011;653;51.480;11.992;2023-04-15T08:10:53;19.43;;;14.77;;
1320;SDS011;653;51.480;11.992;2023-04-15T08:13:19;17.70;;;14.57;;
1320;SDS011;653;51.480;11.992;2023-04-15T08:15:45;18.50;;;14.10;;
1320;SDS011;653;51.480;11.992;2023-04-15T08:18:11;22.23;;;14.50;;
1320;SDS011;653;51.480;11.992;2023-04-15T08:20:38;20.73;;;14.57;;
1320;SDS011;653;51.480;11.992;2023-04-15T08:23:05;19.53;;;13.77;;
1320;SDS011;653;51.480;11.992;2023-04-15T08:25:31;23.30;;;15.17;;
1320;SDS011;653;51.480;11.992;2023-04-15T08:28:01;20.20;;;15.13;;
1320;SDS011;653;51.480;11.992;2023-04-15T08:30:28;19.80;;;13.57;;
1320;SDS011;653;51.480;11.992;2023-04-15T08:32:54;22.17;;;14.73;;
1320;SDS011;653;51.480;11.992;2023-04-15T08:35:20;18.73;;;13.13;;
1320;SDS011;653;51.480;11.992;2023-04-15T08:37:47;22.10;;;14.57;;
1320;SDS011;653;51.480;11.992;2023-04-15T08:40:14;22.30;;;15.90;;
1320;SDS011;653;51.480;11.992;2023-04-15T08:42:44;22.50;;;15.87;;
1320;SDS011;653;51.480;11.992;2023-04-15T08:45:14;24.80;;;17.10;;
1320;SDS011;653;51.480;11.992;2023-04-15T08:47:41;20.70;;;14.10;;
1320;SDS011;653;51.480;11.992;2023-04-15T08:50:07;22.63;;;14.93;;
1320;SDS011;653;51.480;11.992;2023-04-15T08:52:33;25.30;;;16.40;;
1320;SDS011;653;51.480;11.992;2023-04-15T08:55:01;29.37;;;17.53;;
1320;SDS011;653;51.480;11.992;2023-04-15T08:57:27;25.70;;;17.00;;
1320;SDS011;653;51.480;11.992;2023-04-15T08:59:56;29.50;;;18.80;;
1320;SDS011;653;51.480;11.992;2023-04-15T09:02:23;28.97;;;19.00;;
1320;SDS011;653;51.480;11.992;2023-04-15T09:04:56;26.27;;;17.43;;
1320;SDS011;653;51.480;11.992;2023-04-15T09:07:23;30.10;;;19.50;;
1320;SDS011;653;51.480;11.992;2023-04-15T09:09:49;31.70;;;20.43;;
1320;SDS011;653;51.480;11.992;2023-04-15T09:12:16;28.50;;;19.47;;
1320;SDS011;653;51.480;11.992;2023-04-15T09:14:44;28.73;;;19.37;;
1320;SDS011;653;51.480;11.992;2023-04-15T09:17:12;37.97;;;20.80;;
1320;SDS011;653;51.480;11.992;2023-04-15T09:19:39;36.20;;;21.80;;
1320;SDS011;653;51.480;11.992;2023-04-15T09:22:05;34.57;;;21.50;;
1320;SDS011;653;51.480;11.992;2023-04-15T09:24:38;38.13;;;20.60;;
1320;SDS011;653;51.480;11.992;2023-04-15T09:27:06;38.20;;;21.93;;
1320;SDS011;653;51.480;11.992;2023-04-15T09:29:32;39.57;;;22.77;;
1320;SDS011;653;51.480;11.992;2023-04-15T09:32:14;40.27;;;23.20;;
1320;SDS011;653;51.480;11.992;2023-04-15T09:34:40;43.47;;;24.10;;
1320;SDS011;653;51.480;11.992;2023-04-15T09:37:05;43.73;;;25.13;;
1320;SDS011;653;51.480;11.992;2023-04-15T09:42:18;51.10;;;28.27;;
1320;SDS011;653;51.480;11.992;2023-04-15T09:44:53;48.30;;;30.93;;
1320;SDS011;653;51.480;11.992;2023-04-15T09:47:31;50.83;;;27.60;;
1320;SDS011;653;51.480;11.992;2023-04-15T09:49:58;52.67;;;30.03;;
1320;SDS011;653;51.480;11.992;2023-04-15T09:52:26;59.90;;;28.90;;
1320;SDS011;653;51.480;11.992;2023-04-15T09:54:58;55.37;;;30.77;;
1320;SDS011;653;51.480;11.992;2023-04-15T09:57:24;57.23;;;31.30;;
1320;SDS011;653;51.480;11.992;2023-04-15T09:59:50;65.50;;;34.07;;
1320;SDS011;653;51.480;11.992;2023-04-15T10:02:17;58.27;;;33.07;;
1320;SDS011;653;51.480;11.992;2023-04-15T10:04:43;66.30;;;34.87;;
1320;SDS011;653;51.480;11.992;2023-04-15T10:07:11;68.30;;;35.37;;
1320;SDS011;653;51.480;11.992;2023-04-15T10:09:40;64.17;;;36.13;;
1320;SDS011;653;51.480;11.992;2023-04-15T10:12:07;65.07;;;36.90;;
1320;SDS011;653;51.480;11.992;2023-04-15T10:14:34;71.60;;;36.00;;
1320;SDS011;653;51.480;11.992;2023-04-15T10:17:03;64.90;;;35.87;;
1320;SDS011;653;51.480;11.992;2023-04-15T10:19:30;64.63;;;33.20;;
1320;SDS011;653;51.480;11.992;2023-04-15T10:21:57;60.03;;;36.13;;
1320;SDS011;653;51.480;11.992;2023-04-15T10:24:24;66.73;;;36.27;;
1320;SDS011;653;51.480;11.992;2023-04-15T10:26:51;68.57;;;37.47;;
1320;SDS011;653;51.480;11.992;2023-04-15T10:29:18;78.30;;;40.40;;
1320;SDS011;653;51.480;11.992;2023-04-15T10:31:45;74.47;;;37.50;;
1320;SDS011;653;51.480;11.992;2023-04-15T10:34:12;69.80;;;40.10;;
1320;SDS011;653;51.480;11.992;2023-04-15T10:36:39;74.67;;;40.80;;
1320;SDS011;653;51.480;11.992;2023-04-15T10:39:48;87.23;;;46.27;;
1320;SDS011;653;51.480;11.992;2023-04-15T10:44:37;72.70;;;44.40;;
1320;SDS011;653;51.480;11.992;2023-04-15T10:47:16;73.23;;;41.43;;
1320;SDS011;653;51.480;11.992;2023-04-15T10:49:58;79.57;;;44.77;;
1320;SDS011;653;51.480;11.992;2023-04-15T10:52:27;74.90;;;42.80;;
1320;SDS011;653;51.480;11.992;2023-04-15T10:57:36;76.70;;;43.73;;
1320;SDS011;653;51.480;11.992;2023-04-15T11:00:14;75.03;;;42.73;;
1320;SDS011;653;51.480;11.992;2023-04-15T11:05:48;76.77;;;42.27;;
1320;SDS011;653;51.480;11.992;2023-04-15T11:08:19;82.30;;;43.90;;
1320;SDS011;653;51.480;11.992;2023-04-15T11:15:42;91.53;;;53.63;;
1320;SDS011;653;51.480;11.992;2023-04-15T11:18:25;71.03;;;45.87;;
1320;SDS011;653;51.480;11.992;2023-04-15T11:20:58;77.67;;;47.50;;
1320;SDS011;653;51.480;11.992;2023-04-15T11:23:33;74.13;;;47.13;;
1320;SDS011;653;51.480;11.992;2023-04-15T11:26:02;68.37;;;45.67;;
1320;SDS011;653;51.480;11.992;2023-04-15T11:28:33;78.53;;;49.20;;
1320;SDS011;653;51.480;11.992;2023-04-15T11:31:07;87.63;;;51.73;;
1320;SDS011;653;51.480;11.992;2023-04-15T11:33:54;66.20;;;43.07;;
1320;SDS011;653;51.480;11.992;2023-04-15T11:36:23;77.20;;;48.77;;
1320;SDS011;653;51.480;11.992;2023-04-15T11:38:56;68.90;;;46.10;;
1320;SDS011;653;51.480;11.992;2023-04-15T11:41:22;78.27;;;47.40;;
1320;SDS011;653;51.480;11.992;2023-04-15T11:43:51;67.03;;;44.33;;
1320;SDS011;653;51.480;11.992;2023-04-15T11:46:19;71.00;;;47.80;;
1320;SDS011;653;51.480;11.992;2023-04-15T11:48:46;73.70;;;48.57;;
1320;SDS011;653;51.480;11.992;2023-04-15T11:51:13;74.20;;;48.53;;
1320;SDS011;653;51.480;11.992;2023-04-15T11:53:42;73.87;;;45.67;;
1320;SDS011;653;51.480;11.992;2023-04-15T11:56:10;66.53;;;43.73;;
1320;SDS011;653;51.480;11.992;2023-04-15T11:58:55;56.80;;;39.00;;
1320;SDS011;653;51.480;11.992;2023-04-15T12:01:31;65.70;;;47.83;;
1320;SDS011;653;51.480;11.992;2023-04-15T12:03:59;50.57;;;36.60;;
1320;SDS011;653;51.480;11.992;2023-04-15T12:06:30;50.03;;;36.73;;
1320;SDS011;653;51.480;11.992;2023-04-15T12:09:09;48.30;;;36.97;;
1320;SDS011;653;51.480;11.992;2023-04-15T12:17:02;56.20;;;39.37;;
1320;SDS011;653;51.480;11.992;2023-04-15T12:19:37;64.27;;;45.97;;
1320;SDS011;653;51.480;11.992;2023-04-15T12:22:08;45.33;;;36.80;;
1320;SDS011;653;51.480;11.992;2023-04-15T12:24:36;55.53;;;42.17;;
1320;SDS011;653;51.480;11.992;2023-04-15T12:27:06;47.43;;;36.23;;
1320;SDS011;653;51.480;11.992;2023-04-15T12:29:33;76.83;;;55.23;;
1320;SDS011;653;51.480;11.992;2023-04-15T12:32:07;52.43;;;38.27;;
1320;SDS011;653;51.480;11.992;2023-04-15T12:34:41;38.73;;;30.83;;
1320;SDS011;653;51.480;11.992;2023-04-15T12:37:09;29.23;;;26.13;;
1320;SDS011;653;51.480;11.992;2023-04-15T12:39:37;29.83;;;24.27;;
1320;SDS011;653;51.480;11.992;2023-04-15T12:42:05;25.27;;;22.10;;
1320;SDS011;653;51.480;11.992;2023-04-15T12:44:32;25.40;;;22.40;;
1320;SDS011;653;51.480;11.992;2023-04-15T12:46:59;27.43;;;24.53;;
1320;SDS011;653;51.480;11.992;2023-04-15T12:49:24;29.70;;;24.37;;
1320;SDS011;653;51.480;11.992;2023-04-15T12:51:52;25.27;;;22.30;;
1320;SDS011;653;51.480;11.992;2023-04-15T12:54:20;24.10;;;21.50;;
1320;SDS011;653;51.480;11.992;2023-04-15T12:56:47;28.10;;;23.67;;
1320;SDS011;653;51.480;11.992;2023-04-15T12:59:15;24.97;;;20.07;;
1320;SDS011;653;51.480;11.992;2023-04-15T13:01:43;25.37;;;22.77;;
1320;SDS011;653;51.480;11.992;2023-04-15T13:04:10;24.80;;;20.73;;
1320;SDS011;653;51.480;11.992;2023-04-15T13:06:37;22.80;;;20.43;;
1320;SDS011;653;51.480;11.992;2023-04-15T13:09:06;24.43;;;21.80;;
1320;SDS011;653;51.480;11.992;2023-04-15T13:11:31;21.93;;;19.60;;
1320;SDS011;653;51.480;11.992;2023-04-15T13:14:04;22.83;;;20.43;;
1320;SDS011;653;51.480;11.992;2023-04-15T13:16:32;25.43;;;22.43;;
1320;SDS011;653;51.480;11.992;2023-04-15T13:18:59;22.07;;;17.37;;
1320;SDS011;653;51.480;11.992;2023-04-15T13:21:27;22.83;;;20.17;;
1320;SDS011;653;51.480;11.992;2023-04-15T13:23:54;19.47;;;17.47;;
1320;SDS011;653;51.480;11.992;2023-04-15T13:26:21;20.37;;;18.37;;
1320;SDS011;653;51.480;11.992;2023-04-15T13:28:49;19.97;;;17.93;;
1320;SDS011;653;51.480;11.992;2023-04-15T13:31:16;19.70;;;17.67;;
1320;SDS011;653;51.480;11.992;2023-04-15T13:33:41;19.57;;;17.57;;
1320;SDS011;653;51.480;11.992;2023-04-15T13:36:08;16.67;;;15.03;;
1320;SDS011;653;51.480;11.992;2023-04-15T13:38:33;16.50;;;14.87;;
1320;SDS011;653;51.480;11.992;2023-04-15T13:41:00;17.93;;;16.00;;
1320;SDS011;653;51.480;11.992;2023-04-15T13:43:27;18.67;;;16.77;;
1320;SDS011;653;51.480;11.992;2023-04-15T13:45:54;16.30;;;14.60;;
1320;SDS011;653;51.480;11.992;2023-04-15T13:48:21;17.00;;;15.20;;
1320;SDS011;653;51.480;11.992;2023-04-15T13:50:47;15.20;;;13.70;;
1320;SDS011;653;51.480;11.992;2023-04-15T13:53:12;17.63;;;14.77;;
1320;SDS011;653;51.480;11.992;2023-04-15T13:55:39;16.00;;;14.30;;
1320;SDS011;653;51.480;11.992;2023-04-15T13:58:08;14.50;;;13.10;;
1320;SDS011;653;51.480;11.992;2023-04-15T14:00:35;12.90;;;11.60;;
1320;SDS011;653;51.480;11.992;2023-04-15T14:03:02;15.50;;;13.23;;
1320;SDS011;653;51.480;11.992;2023-04-15T14:05:32;13.10;;;11.87;;
1320;SDS011;653;51.480;11.992;2023-04-15T14:07:58;16.23;;;13.53;;
1320;SDS011;653;51.480;11.992;2023-04-15T14:10:23;13.23;;;11.97;;
1320;SDS011;653;51.480;11.992;2023-04-15T14:12:51;15.80;;;14.20;;
1320;SDS011;653;51.480;11.992;2023-04-15T14:15:17;14.80;;;13.23;;
1320;SDS011;653;51.480;11.992;2023-04-15T14:17:44;13.17;;;11.93;;
1320;SDS011;653;51.480;11.992;2023-04-15T14:20:10;13.83;;;12.53;;
1320;SDS011;653;51.480;11.992;2023-04-15T14:22:37;13.90;;;12.40;;
1320;SDS011;653;51.480;11.992;2023-04-15T14:25:03;13.47;;;12.10;;
1320;SDS011;653;51.480;11.992;2023-04-15T14:27:32;15.77;;;13.50;;
1320;SDS011;653;51.480;11.992;2023-04-15T14:29:58;12.83;;;11.63;;
1320;SDS011;653;51.480;11.992;2023-04-15T14:32:25;12.53;;;11.40;;
1320;SDS011;653;51.480;11.992;2023-04-15T14:34:52;12.07;;;10.97;;
1320;SDS011;653;51.480;11.992;2023-04-15T14:37:18;14.70;;;13.20;;
1320;SDS011;653;51.480;11.992;2023-04-15T14:39:45;15.80;;;14.20;;
1320;SDS011;653;51.480;11.992;2023-04-15T14:42:10;16.50;;;15.00;;
1320;SDS011;653;51.480;11.992;2023-04-15T14:44:37;16.00;;;14.50;;
1320;SDS011;653;51.480;11.992;2023-04-15T14:47:03;14.67;;;13.17;;
1320;SDS011;653;51.480;11.992;2023-04-15T14:49:28;16.20;;;14.70;;
1320;SDS011;653;51.480;11.992;2023-04-15T14:51:57;16.17;;;14.17;;
1320;SDS011;653;51.480;11.992;2023-04-15T14:54:24;15.83;;;14.23;;
1320;SDS011;653;51.480;11.992;2023-04-15T14:56:51;16.77;;;15.07;;
1320;SDS011;653;51.480;11.992;2023-04-15T14:59:17;15.97;;;14.47;;
1320;SDS011;653;51.480;11.992;2023-04-15T15:01:43;17.50;;;14.07;;
1320;SDS011;653;51.480;11.992;2023-04-15T15:04:09;16.10;;;14.60;;
1320;SDS011;653;51.480;11.992;2023-04-15T15:06:36;17.93;;;16.20;;
1320;SDS011;653;51.480;11.992;2023-04-15T15:09:03;17.37;;;15.63;;
1320;SDS011;653;51.480;11.992;2023-04-15T15:11:29;17.67;;;15.87;;
1320;SDS011;653;51.480;11.992;2023-04-15T15:13:56;15.87;;;14.17;;